Terminal Aerodrome Forecast
Issued by NWS Topeka, KS

Home | Current Version | Previous Version | Text Only | Print | Product List | Glossary Off
Versions: 1 2 3 4 5 6 7 8 9 10 11 12 13

000
FTUS43 KTOP 292300
TAFTOP
TAF
KTOP 292320Z 3000/3024 15004KT P6SM SKC
     FM300500 18005KT P6SM BKN150 WS009/22040KT
     FM301200 22005KT P6SM SCT150
     FM301600 32012G20KT P6SM SKC=

USA.gov is the U.S. government's official web portal to all federal, state and local government web resources and services.